Time;durP1;ratioP1;P1;durP2;ratioP2;P2;SDS_P1;SDS_P2;PMS_P1;PMS_P2;Temp;Humidity;BMP_temperature;BMP_pressure;BME280_temperature;BME280_humidity;BME280_pressure;Samples;Min_cycle;Max_cycle;Signal;HPM_P1;HPM_P2
2021/04/03 00:03:23;;;;;;;108.55;51.00;;;;;;;4.32;72.38;98742.09;3998557;87;21213;-85
2021/04/03 00:09:25;;;;;;;106.12;50.28;;;;;;;4.21;72.24;98738.27;3932232;89;21238;-92
2021/04/03 00:15:28;;;;;;;107.03;50.28;;;;;;;4.11;72.14;98734.08;4074499;86;21177;-92
2021/04/03 00:21:29;;;;;;;107.50;50.35;;;;;;;4.08;72.14;98728.55;4069382;86;21157;-92
2021/04/03 00:27:31;;;;;;;93.03;48.15;;;;;;;3.91;71.98;98732.83;4077188;86;21315;-87
2021/04/03 00:33:33;;;;;;;111.83;49.93;;;;;;;3.76;72.30;98725.38;3987575;88;21205;-92
2021/04/03 00:39:34;;;;;;;104.78;49.18;;;;;;;3.73;72.31;98713.87;3951470;89;21800;-92
2021/04/03 00:45:36;;;;;;;92.92;47.08;;;;;;;3.75;72.52;98690.73;3987507;88;21440;-93
2021/04/03 00:51:40;;;;;;;105.75;48.92;;;;;;;3.73;72.53;98697.63;4078435;86;21601;-85
2021/04/03 00:57:42;;;;;;;91.17;43.13;;;;;;;3.82;72.55;98692.89;4074026;86;21653;-85
2021/04/03 01:03:44;;;;;;;93.40;41.40;;;;;;;3.62;72.79;98678.30;4086705;85;21613;-84
2021/04/03 01:09:46;;;;;;;87.82;41.55;;;;;;;3.60;73.84;98676.52;4105386;86;21193;-85
2021/04/03 01:15:56;;;;;;;89.58;42.23;;;;;;;3.58;73.04;98665.23;4095363;86;21331;-84
2021/04/03 01:22:31;;;;;;;90.17;43.68;;;;;;;3.52;73.12;98661.16;4112485;85;21332;-85
2021/04/03 01:28:59;;;;;;;79.65;36.28;;;;;;;3.52;73.28;98670.64;4116470;85;21299;-88
2021/04/03 01:35:06;;;;;;;94.87;43.40;;;;;;;3.23;73.02;98665.96;4104170;86;21164;-85
2021/04/03 01:41:11;;;;;;;89.52;44.08;;;;;;;3.01;73.81;98662.50;4101356;86;21522;-85
2021/04/03 01:47:23;;;;;;;85.27;41.47;;;;;;;3.02;74.20;98672.19;4106018;86;21188;-85
2021/04/03 01:53:25;;;;;;;96.67;44.33;;;;;;;3.13;74.22;98677.41;4036703;87;21215;-91
2021/04/03 01:59:29;;;;;;;86.50;42.67;;;;;;;3.25;74.28;98673.95;3955576;88;21195;-93
2021/04/03 02:05:48;;;;;;;90.07;42.67;;;;;;;3.06;73.61;98675.82;4004003;88;21326;-84
2021/04/03 02:12:01;;;;;;;99.32;45.38;;;;;;;2.89;74.40;98665.17;4391282;79;23011;-85
2021/04/03 02:18:14;;;;;;;97.33;45.50;;;;;;;2.79;74.55;98668.27;4325360;81;21893;-85
2021/04/03 02:24:17;;;;;;;96.32;45.55;;;;;;;2.83;74.82;98662.45;4317569;81;21128;-85
2021/04/03 02:30:23;;;;;;;106.12;48.98;;;;;;;2.91;74.72;98669.66;4347780;81;21160;-85
2021/04/03 02:36:26;;;;;;;93.80;45.52;;;;;;;2.87;75.10;98659.85;4339976;81;21142;-84
2021/04/03 02:42:30;;;;;;;98.03;45.75;;;;;;;2.76;74.48;98658.13;4330990;81;21188;-92
2021/04/03 02:48:37;;;;;;;120.37;58.05;;;;;;;2.70;74.75;98651.91;4324448;81;21152;-85
2021/04/03 02:54:42;;;;;;;95.20;46.58;;;;;;;2.69;75.83;98640.29;4321767;82;21151;-85
2021/04/03 03:00:46;;;;;;;95.77;44.30;;;;;;;2.59;75.60;98641.27;4308432;82;21173;-92
2021/04/03 03:06:49;;;;;;;96.37;46.28;;;;;;;2.78;76.07;98636.17;4335065;81;21197;-92
2021/04/03 03:12:52;;;;;;;90.75;44.45;;;;;;;2.95;76.10;98645.47;4310531;82;21148;-85
2021/04/03 03:18:56;;;;;;;100.42;46.08;;;;;;;3.14;75.76;98630.33;4296872;82;21182;-87
2021/04/03 03:24:59;;;;;;;86.95;41.85;;;;;;;3.12;75.75;98627.16;4298131;81;21178;-87
2021/04/03 03:31:14;;;;;;;84.05;39.10;;;;;;;3.00;75.45;98644.70;4299437;82;21154;-87
2021/04/03 03:37:17;;;;;;;;;;;;;;;2.74;76.06;98629.28;4071303;80;35021;-87
2021/04/03 03:43:21;;;;;;;94.25;44.33;;;;;;;2.66;76.05;98625.32;4027192;88;20198;-85
2021/04/03 03:49:23;;;;;;;95.35;46.60;;;;;;;2.66;76.36;98620.69;3926254;90;21907;-87
2021/04/03 03:55:25;;;;;;;103.30;46.37;;;;;;;2.76;76.28;98626.24;4015926;88;21973;-92
2021/04/03 04:01:27;;;;;;;94.60;43.42;;;;;;;2.69;76.17;98625.42;3966262;89;21727;-87
2021/04/03 04:07:34;;;;;;;88.30;40.55;;;;;;;2.73;76.27;98622.30;4053245;85;38108;-88
2021/04/03 04:13:33;;;;;;;87.22;42.58;;;;;;;2.79;76.39;98616.12;4054583;86;21496;-93
2021/04/03 04:19:35;;;;;;;88.45;42.90;;;;;;;2.76;76.51;98614.87;4070288;86;21192;-85
2021/04/03 04:25:38;;;;;;;77.82;40.75;;;;;;;2.77;76.67;98617.80;4066098;86;21191;-91
2021/04/03 04:31:40;;;;;;;92.90;42.67;;;;;;;2.63;76.71;98607.84;4062419;86;21195;-91
2021/04/03 04:37:44;;;;;;;96.28;46.02;;;;;;;2.79;77.15;98612.06;4061824;86;21209;-91
2021/04/03 04:43:46;;;;;;;98.62;45.65;;;;;;;2.87;77.44;98606.58;4063909;86;21172;-87
2021/04/03 04:49:50;;;;;;;87.53;43.55;;;;;;;2.94;77.39;98602.76;4069069;86;21207;-88
2021/04/03 04:55:52;;;;;;;85.65;43.17;;;;;;;3.05;77.46;98605.84;4074411;85;59998;-88
2021/04/03 05:01:54;;;;;;;92.85;43.50;;;;;;;3.18;77.46;98612.84;4160855;85;21173;-88
2021/04/03 05:07:57;;;;;;;85.40;41.60;;;;;;;3.30;77.58;98618.84;4156624;84;21222;-86
2021/04/03 05:13:59;;;;;;;83.92;41.05;;;;;;;3.44;77.71;98634.20;4145842;84;21209;-87
2021/04/03 05:20:01;;;;;;;74.22;36.80;;;;;;;3.56;77.77;98647.73;4139392;85;21162;-87
2021/04/03 05:26:03;;;;;;;76.95;39.27;;;;;;;3.72;77.75;98653.50;4130099;85;21241;-91
2021/04/03 05:32:06;;;;;;;76.00;37.75;;;;;;;3.79;77.67;98658.36;4138109;85;21312;-90
2021/04/03 05:38:07;;;;;;;82.75;39.03;;;;;;;3.76;77.67;98677.99;4126867;85;21187;-84
2021/04/03 05:44:10;;;;;;;65.05;34.25;;;;;;;3.80;77.79;98683.75;4141803;85;21194;-90
2021/04/03 05:50:13;;;;;;;73.28;38.25;;;;;;;3.99;78.84;98690.75;4083398;80;74282;-91
2021/04/03 05:56:14;;;;;;;76.57;37.23;;;;;;;4.20;78.01;98691.95;4053162;86;21154;-91
2021/04/03 06:02:16;;;;;;;69.50;34.23;;;;;;;;;;4056854;86;21308;-92
2021/04/03 06:08:18;;;;;;;73.17;32.98;;;;;;;4.85;77.17;98710.59;4058168;86;21146;-87
2021/04/03 06:14:20;;;;;;;64.03;30.25;;;;;;;5.02;76.94;98712.22;4046256;86;21182;-93
2021/04/03 06:20:42;;;;;;;60.40;32.25;;;;;;;5.18;76.86;98721.20;4049763;87;21198;-94
2021/04/03 06:27:09;;;;;;;52.95;30.70;;;;;;;5.18;76.48;98727.44;4047964;88;21233;-86
2021/04/03 06:33:19;;;;;;;59.00;33.00;;;;;;;5.15;76.16;98738.98;4033585;87;21412;-85
2021/04/03 06:39:21;;;;;;;55.28;29.48;;;;;;;5.01;76.05;98739.14;4041600;86;21729;-87
2021/04/03 06:45:30;;;;;;;58.33;29.75;;;;;;;4.97;76.11;98739.59;4159758;84;48917;-85
2021/04/03 06:51:33;;;;;;;57.17;32.35;;;;;;;5.04;76.23;98735.17;4199338;83;21188;-86
2021/04/03 06:57:36;;;;;;;62.43;34.08;;;;;;;5.13;76.42;98743.95;4208038;84;21372;-86
2021/04/03 07:03:43;;;;;;;55.52;31.10;;;;;;;5.10;76.50;98743.84;4210290;84;21337;-92
2021/04/03 07:09:47;;;;;;;57.45;32.25;;;;;;;5.04;76.35;98748.73;4200802;83;21635;-87
2021/04/03 07:33:05;;;;;;;72.60;39.58;;;;;;;4.92;77.71;98779.95;4357069;80;23128;-87
2021/04/03 07:39:10;;;;;;;67.78;36.40;;;;;;;4.83;77.65;98784.16;4323393;81;21216;-88
2021/04/03 07:45:34;;;;;;;51.98;31.23;;;;;;;4.73;77.58;98793.31;4334200;81;21173;-90
2021/04/03 07:51:43;;;;;;;57.27;31.73;;;;;;;4.60;77.76;98802.03;4302179;81;21166;-90
2021/04/03 07:57:44;;;;;;;51.05;31.37;;;;;;;4.64;77.97;98818.41;4292907;81;21345;-92
2021/04/03 08:04:01;;;;;;;40.78;26.25;;;;;;;4.68;78.03;98820.69;4321563;81;21201;-92
2021/04/03 08:10:19;;;;;;;40.28;24.72;;;;;;;4.71;78.17;98820.00;4229373;82;21604;-90
2021/04/03 08:16:28;;;;;;;41.92;25.48;;;;;;;4.86;78.44;98822.01;4224249;82;21297;-92
2021/04/03 08:22:30;;;;;;;45.55;27.25;;;;;;;5.00;78.49;98829.22;4328365;81;21292;-88
2021/04/03 08:28:32;;;;;;;47.10;27.42;;;;;;;4.97;78.53;98833.17;4315444;81;21143;-88
2021/04/03 08:34:44;;;;;;;48.65;29.48;;;;;;;5.12;78.94;98834.61;4286020;82;21200;-89
2021/04/03 08:40:47;;;;;;;46.33;28.92;;;;;;;5.22;78.66;98837.41;4332353;81;21465;-88
2021/04/03 08:46:52;;;;;;;43.33;26.15;;;;;;;5.27;78.75;98838.54;4291025;82;21153;-88
2021/04/03 08:53:00;;;;;;;42.67;26.95;;;;;;;5.27;78.62;98837.18;4285912;82;21460;-88
2021/04/03 08:59:06;;;;;;;27.85;18.77;;;;;;;5.37;78.70;98836.72;4310984;81;21635;-86
2021/04/03 09:05:11;;;;;;;23.80;16.15;;;;;;;5.61;78.62;98849.63;4326045;81;21593;-90
2021/04/03 09:11:13;;;;;;;18.60;13.08;;;;;;;5.75;78.38;98851.38;4319256;81;21162;-90
2021/04/03 09:17:23;;;;;;;16.25;11.93;;;;;;;6.06;77.95;98847.98;4315300;81;21552;-85
2021/04/03 09:23:25;;;;;;;16.85;12.13;;;;;;;6.26;77.15;98847.72;4330998;81;21169;-85
2021/04/03 09:29:27;;;;;;;17.77;11.78;;;;;;;6.20;76.85;98846.99;4274651;81;21572;-88
2021/04/03 09:35:30;;;;;;;20.23;12.33;;;;;;;6.01;76.22;98846.88;4255126;81;21197;-90
2021/04/03 09:41:33;;;;;;;17.55;12.07;;;;;;;5.88;76.32;98843.43;4340325;80;21169;-85
2021/04/03 09:47:34;;;;;;;22.05;13.05;;;;;;;5.79;76.09;98861.78;4269899;82;21150;-86
2021/04/03 09:53:45;;;;;;;16.37;11.80;;;;;;;5.73;75.91;98860.43;4198483;83;21201;-91
2021/04/03 09:59:46;;;;;;;19.17;11.08;;;;;;;5.77;76.05;98869.48;4180936;83;21193;-88
2021/04/03 10:05:48;;;;;;;23.18;15.32;;;;;;;5.63;75.77;98880.51;4283766;80;21170;-86
2021/04/03 10:18:12;;;;;;;13.73;9.50;;;;;;;5.29;76.99;98865.58;4409423;79;28336;-85
2021/04/03 10:24:14;;;;;;;15.55;9.43;;;;;;;5.82;77.30;98872.55;4386271;79;21809;-85
2021/04/03 10:30:20;;;;;;;19.37;11.97;;;;;;;6.75;77.41;98865.06;4393821;79;21156;-88
2021/04/03 10:36:24;;;;;;;20.90;13.17;;;;;;;7.97;76.16;98866.95;4383803;79;21598;-88
2021/04/03 10:42:26;;;;;;;30.85;17.65;;;;;;;9.02;75.39;98871.50;4375815;79;21173;-88
2021/04/03 10:48:28;;;;;;;37.78;19.82;;;;;;;10.19;71.80;98872.47;4379834;79;21320;-88
2021/04/03 10:54:29;;;;;;;27.55;18.80;;;;;;;9.86;72.33;98856.84;4388061;79;21188;-88
2021/04/03 11:00:31;;;;;;;23.60;17.45;;;;;;;9.34;71.55;98856.95;4397290;79;21193;-85
2021/04/03 11:06:32;;;;;;;24.60;17.12;;;;;;;9.08;71.44;98845.45;4388970;81;21181;-85
2021/04/03 11:12:34;;;;;;;22.45;15.85;;;;;;;8.81;70.97;98858.91;4378911;79;21638;-92
2021/04/03 11:18:35;;;;;;;23.77;16.05;;;;;;;8.33;70.56;98858.87;4386427;79;21133;-91
2021/04/03 11:24:39;;;;;;;14.33;10.23;;;;;;;7.72;70.37;98873.84;4397121;79;21163;-85
2021/04/03 11:30:48;;;;;;;18.45;10.70;;;;;;;6.65;70.85;98928.14;4227855;80;27659;-93
2021/04/03 11:36:50;;;;;;;14.30;9.73;;;;;;;4.93;71.31;98929.94;4151138;83;29451;-93
2021/04/03 11:42:55;;;;;;;15.58;9.48;;;;;;;4.22;72.35;98931.64;4119976;85;21208;-85
2021/04/03 11:48:57;;;;;;;21.75;12.63;;;;;;;4.06;73.58;98914.98;4120286;85;21180;-91
2021/04/03 11:54:59;;;;;;;20.27;13.10;;;;;;;3.92;74.36;98928.83;4121362;85;21643;-88
2021/04/03 12:01:03;;;;;;;28.75;17.07;;;;;;;4.14;73.84;98923.04;4121739;85;21306;-86
2021/04/03 12:07:05;;;;;;;20.57;13.00;;;;;;;4.23;74.88;98952.19;4121741;85;21324;-85
2021/04/03 12:13:07;;;;;;;11.35;7.17;;;;;;;3.90;74.85;98949.25;4050834;86;21283;-87
2021/04/03 12:19:08;;;;;;;11.48;6.22;;;;;;;3.72;75.39;98955.37;3953707;89;21232;-88
2021/04/03 12:25:12;;;;;;;13.08;7.10;;;;;;;3.76;76.19;98951.45;4092580;85;21208;-88
2021/04/03 12:31:13;;;;;;;19.85;7.17;;;;;;;4.10;77.12;98960.03;4097079;86;21220;-92
2021/04/03 12:38:06;;;;;;;14.83;6.90;;;;;;;4.50;76.57;98954.86;4095157;85;21630;-89
2021/04/03 12:44:08;;;;;;;8.23;4.60;;;;;;;4.84;76.61;98962.58;4096331;85;21149;-86
2021/04/03 12:50:11;;;;;;;7.80;4.20;;;;;;;5.01;76.13;98961.59;4096950;85;21244;-87
2021/04/03 12:56:12;;;;;;;13.98;6.12;;;;;;;5.20;75.13;98968.61;4096050;85;21181;-91
2021/04/03 13:02:16;;;;;;;10.43;5.12;;;;;;;5.29;75.53;98967.36;4232338;82;24512;-92
2021/04/03 13:08:19;;;;;;;29.18;9.15;;;;;;;5.55;74.58;98975.91;4171868;82;21598;-88
2021/04/03 13:14:21;;;;;;;13.25;7.40;;;;;;;5.76;72.76;98973.81;4215419;82;21249;-87
2021/04/03 13:20:23;;;;;;;12.75;8.13;;;;;;;5.84;70.49;98971.56;4092427;85;21192;-88
2021/04/03 13:26:25;;;;;;;20.60;9.93;;;;;;;6.04;69.32;98971.17;4128709;84;21220;-88
2021/04/03 13:32:33;;;;;;;15.28;8.75;;;;;;;6.01;69.32;98974.00;4089149;85;21177;-87
2021/04/03 13:38:34;;;;;;;13.30;8.93;;;;;;;6.34;68.47;98976.49;4119209;85;21590;-85
2021/04/03 13:44:36;;;;;;;11.35;7.97;;;;;;;6.83;70.00;98963.41;4119021;85;21198;-85
2021/04/03 13:50:37;;;;;;;14.28;9.28;;;;;;;7.25;68.15;98966.56;4119350;86;21226;-86
2021/04/03 13:56:39;;;;;;;14.10;9.60;;;;;;;7.49;68.53;98964.20;4119100;86;21177;-86
2021/04/03 14:02:40;;;;;;;14.23;9.75;;;;;;;7.68;64.75;98961.52;4123746;85;21213;-87
2021/04/03 14:08:42;;;;;;;25.50;14.23;;;;;;;7.50;66.84;98975.33;4134028;84;21725;-88
2021/04/03 14:14:43;;;;;;;15.88;10.18;;;;;;;7.17;66.36;98969.48;4143123;84;21591;-85
2021/04/03 14:20:45;;;;;;;12.70;9.13;;;;;;;6.99;65.37;98977.78;4161402;83;45809;-85
2021/04/03 14:26:46;;;;;;;12.65;9.43;;;;;;;6.84;65.32;98979.94;4103056;86;21140;-86
2021/04/03 14:32:48;;;;;;;13.08;9.40;;;;;;;6.93;64.37;98982.71;4136874;86;21563;-85
2021/04/03 14:38:49;;;;;;;11.93;8.05;;;;;;;7.51;64.56;98977.70;4131271;86;21194;-88
2021/04/03 14:44:52;;;;;;;12.60;8.00;;;;;;;7.83;63.54;98968.27;4105372;86;21159;-87
2021/04/03 14:57:58;;;;;;;19.98;12.47;;;;;;;7.24;61.70;98977.25;4081112;86;21616;-85
2021/04/03 15:04:00;;;;;;;22.32;9.93;;;;;;;6.84;62.55;98982.66;4099654;86;21214;-92
2021/04/03 15:10:02;;;;;;;13.58;7.37;;;;;;;6.82;61.97;98973.48;4126898;86;21182;-92
2021/04/03 15:16:04;;;;;;;9.60;5.90;;;;;;;6.81;59.97;98969.75;4110145;86;21257;-84
2021/04/03 15:22:06;;;;;;;7.03;4.70;;;;;;;6.73;59.66;98967.99;4090016;85;21176;-85
2021/04/03 15:28:10;;;;;;;9.10;5.10;;;;;;;6.53;59.32;98972.52;4117677;85;21169;-87
2021/04/03 15:34:12;;;;;;;13.53;6.28;;;;;;;6.67;57.66;98972.11;4108895;85;21190;-92
2021/04/03 15:40:15;;;;;;;11.05;5.87;;;;;;;6.55;57.98;98983.05;4114833;85;21184;-88
2021/04/03 15:46:17;;;;;;;13.20;6.53;;;;;;;6.47;58.24;98989.45;4111592;85;21194;-88
2021/04/03 15:52:19;;;;;;;8.28;5.47;;;;;;;6.44;58.15;98990.16;4105350;85;21213;-87
2021/04/03 15:58:21;;;;;;;16.42;6.87;;;;;;;6.38;58.67;98984.96;4070524;86;21197;-88
2021/04/03 16:04:22;;;;;;;16.82;8.13;;;;;;;6.34;58.05;98987.37;4098890;85;21205;-88
2021/04/03 16:10:51;;;;;;;21.25;9.70;;;;;;;6.28;58.63;98994.16;4100429;85;21180;-85
2021/04/03 16:16:55;;;;;;;20.08;10.25;;;;;;;6.28;58.90;98988.17;4070977;86;21776;-88
2021/04/03 16:22:56;;;;;;;63.63;17.95;;;;;;;6.28;58.89;98992.25;4094378;87;21173;-86
2021/04/03 16:28:58;;;;;;;14.18;4.33;;;;;;;6.28;58.00;99011.28;4110705;86;21622;-85
2021/04/03 16:34:59;;;;;;;6.62;2.62;;;;;;;5.83;58.73;99061.55;4116346;86;21205;-85
2021/04/03 16:41:01;;;;;;;17.42;7.45;;;;;;;4.91;60.06;99046.92;4116381;86;21212;-85
2021/04/03 16:47:05;;;;;;;8.13;5.00;;;;;;;4.60;63.78;99017.56;4095013;86;21661;-91
2021/04/03 16:53:06;;;;;;;9.90;5.78;;;;;;;4.31;63.92;99034.52;4047394;87;21174;-88
2021/04/03 16:59:07;;;;;;;12.65;6.90;;;;;;;4.37;64.41;99063.03;4054064;87;21752;-88
2021/04/03 17:05:10;;;;;;;17.70;9.43;;;;;;;4.32;64.82;99059.93;4061211;87;21189;-89
2021/04/03 17:11:12;;;;;;;21.48;10.18;;;;;;;4.31;65.51;99072.45;4104815;86;21181;-87
2021/04/03 17:17:14;;;;;;;34.05;16.93;;;;;;;4.25;66.54;99076.50;4089051;85;21360;-84
2021/04/03 17:23:15;;;;;;;44.55;20.27;;;;;;;4.00;67.55;99076.13;4041140;87;21359;-84
2021/04/03 17:29:16;;;;;;;33.23;15.18;;;;;;;4.08;67.74;99088.83;4048045;87;21181;-85
2021/04/03 17:35:18;;;;;;;37.95;23.70;;;;;;;3.89;68.06;99089.83;4034963;87;21231;-91
2021/04/03 17:41:20;;;;;;;50.25;28.15;;;;;;;3.77;68.15;99099.23;4051709;87;22331;-91
2021/04/03 17:47:22;;;;;;;32.83;14.98;;;;;;;3.64;68.84;99107.02;4034468;87;21235;-87
2021/04/03 17:53:23;;;;;;;25.90;14.15;;;;;;;3.55;68.45;99107.08;4040654;87;21223;-84
2021/04/03 17:59:25;;;;;;;31.15;17.15;;;;;;;3.44;68.88;99117.23;4034795;87;21274;-91
2021/04/03 18:05:26;;;;;;;30.12;16.82;;;;;;;3.26;69.45;99121.91;4033409;87;22329;-91
2021/04/03 18:11:28;;;;;;;30.97;17.57;;;;;;;3.20;69.84;99133.47;4041769;87;21374;-91
2021/04/03 18:17:29;;;;;;;25.95;14.43;;;;;;;3.09;69.93;99144.95;4103547;86;21590;-90
2021/04/03 18:23:35;;;;;;;41.55;20.68;;;;;;;2.89;69.70;99153.20;4117425;85;21618;-87
2021/04/03 18:29:39;;;;;;;65.72;30.90;;;;;;;2.47;70.21;99155.37;4045955;87;21288;-91
2021/04/03 18:35:40;;;;;;;76.17;37.30;;;;;;;2.33;70.49;99157.44;4105865;85;21694;-92
2021/04/03 18:41:42;;;;;;;66.47;33.10;;;;;;;2.17;71.51;99155.50;4108556;86;21236;-90
2021/04/03 18:47:44;;;;;;;39.25;21.27;;;;;;;1.84;71.54;99151.06;4104613;85;21196;-92
2021/04/03 18:53:45;;;;;;;34.33;18.25;;;;;;;1.84;71.54;99151.06;4111147;86;21339;-84
2021/04/03 18:59:47;;;;;;;41.98;23.67;;;;;;;1.85;72.06;99181.56;4102480;86;21654;-85
2021/04/03 19:05:49;;;;;;;45.78;22.30;;;;;;;1.85;72.06;99181.56;4095784;85;21180;-87
2021/04/03 19:11:50;;;;;;;55.78;27.48;;;;;;;1.74;72.97;99195.11;4054888;87;21307;-91
2021/04/03 19:17:52;;;;;;;59.55;30.32;;;;;;;1.62;73.30;99191.63;4099653;85;21161;-84
2021/04/03 19:23:53;;;;;;;63.58;33.28;;;;;;;1.54;74.76;99203.18;4100298;85;21204;-88
2021/04/03 19:29:55;;;;;;;66.25;30.20;;;;;;;1.34;74.34;99208.58;4111748;85;21834;-87
2021/04/03 19:35:57;;;;;;;71.25;35.40;;;;;;;1.48;74.69;99209.83;4111957;85;21168;-91
2021/04/03 19:41:58;;;;;;;87.37;39.40;;;;;;;1.60;74.67;99210.84;4106586;85;21677;-86
2021/04/03 19:48:03;;;;;;;62.25;31.45;;;;;;;1.41;75.36;99219.70;4097492;85;21171;-89
2021/04/03 19:54:12;;;;;;;61.00;30.27;;;;;;;1.41;75.36;99219.70;4082044;85;21221;-91
2021/04/03 20:00:15;;;;;;;74.47;35.60;;;;;;;1.52;75.50;99227.78;4046011;86;21241;-91
2021/04/03 20:06:16;;;;;;;77.30;37.98;;;;;;;1.54;75.82;99244.46;3977785;88;21272;-87
2021/04/03 20:12:18;;;;;;;74.22;35.15;;;;;;;1.54;75.82;99244.46;4096599;85;21197;-90
2021/04/03 20:18:20;;;;;;;76.25;37.98;;;;;;;1.66;76.32;99257.93;4110203;86;21189;-84
2021/04/03 20:24:21;;;;;;;80.55;38.10;;;;;;;1.69;76.45;99258.11;4085721;87;21197;-84
2021/04/03 20:30:29;;;;;;;86.75;42.38;;;;;;;1.84;76.78;99266.34;4065583;86;21533;-91
2021/04/03 20:36:27;;;;;;;77.85;39.78;;;;;;;1.94;76.90;99274.98;4064085;86;21181;-87
2021/04/03 20:42:28;;;;;;;75.85;40.70;;;;;;;1.89;76.32;99277.81;4083400;86;21502;-88
2021/04/03 20:55:58;;;;;;;75.42;37.88;;;;;;;1.44;77.19;99288.45;4079462;87;21166;-85
2021/04/03 21:02:00;;;;;;;70.35;37.88;;;;;;;1.59;77.70;99289.39;4083214;85;21599;-83
2021/04/03 21:08:01;;;;;;;79.47;38.45;;;;;;;1.68;77.67;99290.23;4101479;87;21201;-83
2021/04/03 21:14:03;;;;;;;80.87;39.85;;;;;;;1.74;77.80;99293.61;4099130;87;21637;-83
2021/04/03 21:20:07;;;;;;;79.53;36.35;;;;;;;1.60;77.49;99299.08;4062452;86;21189;-83
2021/04/03 21:26:09;;;;;;;80.62;41.70;;;;;;;1.60;77.49;99299.08;4064854;87;21773;-83
2021/04/03 21:32:10;;;;;;;80.07;39.45;;;;;;;1.45;78.03;99283.28;3959038;89;21662;-83
2021/04/03 21:38:14;;;;;;;70.10;35.55;;;;;;;1.60;78.17;99301.77;4009080;88;21172;-92
2021/04/03 21:44:17;;;;;;;77.58;38.48;;;;;;;1.63;78.47;99297.68;4098752;86;21197;-86
2021/04/03 21:50:19;;;;;;;66.57;35.55;;;;;;;1.66;78.04;99301.88;4111836;86;21179;-86
2021/04/03 21:56:21;;;;;;;69.80;37.10;;;;;;;1.69;78.26;99300.48;4094682;86;21662;-87
2021/04/03 22:02:23;;;;;;;79.90;39.80;;;;;;;1.62;78.05;99314.41;4110462;86;21555;-84
2021/04/03 22:08:37;;;;;;;64.42;35.95;;;;;;;1.49;78.47;99314.73;4110963;86;21216;-83
2021/04/03 22:14:54;;;;;;;64.12;31.90;;;;;;;1.47;78.54;99327.72;4106092;86;21341;-83
2021/04/03 22:20:55;;;;;;;59.73;27.95;;;;;;;1.47;78.54;99327.72;4090251;85;21335;-83
2021/04/03 22:26:57;;;;;;;55.45;28.67;;;;;;;1.30;78.96;99325.48;4098864;86;21161;-91
2021/04/03 22:32:59;;;;;;;54.93;26.50;;;;;;;1.26;79.18;99337.96;4103990;85;21192;-90
2021/04/03 22:39:01;;;;;;;53.13;26.60;;;;;;;1.26;79.17;99338.77;4095523;85;21321;-83
2021/04/03 22:45:07;;;;;;;69.00;34.60;;;;;;;1.26;79.09;99337.96;4110249;87;21173;-83
2021/04/03 22:51:09;;;;;;;79.15;38.65;;;;;;;1.18;79.17;99336.80;4099205;85;21184;-83
2021/04/03 22:57:11;;;;;;;76.00;36.50;;;;;;;1.23;79.37;99347.47;4057152;87;21393;-86
2021/04/03 23:03:12;;;;;;;181.25;61.40;;;;;;;1.25;79.61;99349.30;4108830;85;21196;-87
2021/04/03 23:09:14;;;;;;;186.10;59.77;;;;;;;1.24;79.94;99347.70;4097609;85;21363;-86
2021/04/03 23:15:17;;;;;;;124.87;45.30;;;;;;;1.32;80.36;99352.92;4104924;85;21193;-83
2021/04/03 23:27:56;;;;;;;119.37;42.95;;;;;;;1.58;80.19;99359.32;4005437;88;21198;-83
2021/04/03 23:33:58;;;;;;;79.12;35.17;;;;;;;1.72;80.18;99350.60;4116347;86;22005;-83
2021/04/03 23:40:28;;;;;;;77.25;34.53;;;;;;;1.79;80.30;99350.95;4113223;86;21696;-84
2021/04/03 23:46:30;;;;;;;64.55;29.72;;;;;;;1.74;80.19;99342.20;4112125;86;21634;-84
2021/04/03 23:52:31;;;;;;;73.33;33.00;;;;;;;1.70;80.35;99335.80;4112559;86;21138;-84
2021/04/03 23:58:33;;;;;;;109.92;41.33;;;;;;;1.89;80.19;99351.24;4108210;86;21191;-84
